Destinations João Paulo II Airport

João Paulo II Airport (LPPD / PDL)

Flights to João Paulo II Airport

Flight number From ETE Dispatch
SPY-2254 EGFF Cardiff International Airport 03:40

Flights from João Paulo II Airport

Flight number To ETE Dispatch
SPY-2255 EGFF Cardiff International Airport 03:30
About

João Paulo II Airport facts

João Paulo II Airport is located in Ponta Delgada at an elevation of 78.9 meters or 259 feet.

Currently, Speedy Airlines serves 2 flights to and from João Paulo II Airport.

Detailed airport info

Route map

Weather

Current weather

METAR

METAR

Metar data retrieved Sunday, 21 July 2024 at 18:25 UTC

LPPD 211800Z 27009KT 9999 FEW020 25/20 Q1022
Wind Temperature
9 kt 25c